Time;durP1;ratioP1;P1;durP2;ratioP2;P2;SDS_P1;SDS_P2;PMS_P1;PMS_P2;Temp;Humidity;BMP_temperature;BMP_pressure;BME280_temperature;BME280_humidity;BME280_pressure;Samples;Min_cycle;Max_cycle;Signal;HPM_P1;HPM_P2
2023/07/29 00:00:07;;;;;;;5.13;4.63;;;;;;;18.34;75.85;100303.59;4976294;28;20216;-73
2023/07/29 00:02:40;;;;;;;5.63;5.03;;;;;;;18.31;75.77;100296.31;4979193;28;20227;-71
2023/07/29 00:05:07;;;;;;;6.10;5.00;;;;;;;18.31;75.74;100307.78;4977836;28;20212;-72
2023/07/29 00:07:33;;;;;;;7.60;5.23;;;;;;;18.28;75.92;100297.84;4976649;28;20235;-72
2023/07/29 00:09:59;;;;;;;5.63;4.83;;;;;;;18.28;75.93;100311.22;4977424;28;21569;-72
2023/07/29 00:12:26;;;;;;;5.07;4.50;;;;;;;18.26;75.90;100302.81;4969802;28;20207;-72
2023/07/29 00:14:52;;;;;;;5.70;4.90;;;;;;;18.26;75.55;100291.38;4976968;28;20239;-72
2023/07/29 00:17:19;;;;;;;6.43;4.93;;;;;;;18.24;75.77;100299.00;4978269;28;20745;-72
2023/07/29 00:19:48;;;;;;;4.63;4.07;;;;;;;18.20;75.66;100288.31;4977574;28;20222;-72
2023/07/29 00:22:14;;;;;;;5.20;4.70;;;;;;;18.17;75.49;100293.66;4975789;28;20219;-72
2023/07/29 00:24:41;;;;;;;5.10;4.57;;;;;;;18.14;75.51;100289.84;4993385;28;20215;-72
2023/07/29 00:27:07;;;;;;;6.67;4.70;;;;;;;18.10;75.22;100285.63;4978437;28;20212;-72
2023/07/29 00:29:33;;;;;;;6.00;5.40;;;;;;;18.06;75.35;100276.88;4978613;28;20780;-72
2023/07/29 00:32:00;;;;;;;5.10;4.60;;;;;;;18.02;75.72;100281.44;4977161;28;20220;-71
2023/07/29 00:34:26;;;;;;;4.90;4.13;;;;;;;17.98;75.65;100276.09;4975159;28;20235;-71
2023/07/29 00:36:54;;;;;;;7.20;4.90;;;;;;;17.95;75.59;100274.19;4978747;28;20222;-72
2023/07/29 00:39:20;;;;;;;5.00;4.50;;;;;;;17.91;75.47;100267.31;4976309;28;20239;-72
2023/07/29 00:41:46;;;;;;;4.73;4.30;;;;;;;17.87;75.65;100274.56;4979061;28;20708;-72
2023/07/29 00:44:13;;;;;;;5.00;4.57;;;;;;;17.83;75.55;100265.78;4975547;28;21501;-72
2023/07/29 00:46:41;;;;;;;5.30;4.80;;;;;;;17.80;75.54;100274.56;4975901;28;20925;-71
2023/07/29 00:49:08;;;;;;;7.70;5.37;;;;;;;17.76;75.61;100265.78;4976741;28;20240;-72
2023/07/29 00:51:34;;;;;;;8.03;5.63;;;;;;;17.74;75.62;100274.16;4975910;28;20220;-72
2023/07/29 00:54:02;;;;;;;5.93;5.33;;;;;;;17.70;75.92;100265.38;4978799;28;21387;-72
2023/07/29 00:56:28;;;;;;;7.83;6.17;;;;;;;17.68;75.82;100269.56;4992773;28;21090;-72
2023/07/29 00:58:58;;;;;;;6.90;6.13;;;;;;;17.65;76.43;100273.75;4978814;28;20228;-72
2023/07/29 01:01:25;;;;;;;6.20;5.50;;;;;;;17.65;76.60;100267.69;4976456;28;20207;-72
2023/07/29 01:03:52;;;;;;;6.83;5.60;;;;;;;17.62;76.62;100269.19;4977943;28;20269;-72
2023/07/29 01:06:25;;;;;;;6.93;6.23;;;;;;;17.63;76.44;100269.94;4975912;28;20214;-71
2023/07/29 01:09:00;;;;;;;7.73;6.40;;;;;;;17.60;76.44;100265.38;4976788;28;20242;-72
2023/07/29 01:11:39;;;;;;;7.50;5.97;;;;;;;17.58;76.55;100259.63;4975125;28;20628;-72
2023/07/29 01:14:19;;;;;;;7.60;5.00;;;;;;;17.56;76.42;100257.38;4976606;28;20227;-73
2023/07/29 01:16:49;;;;;;;7.07;5.63;;;;;;;17.54;76.38;100248.22;4975640;28;20238;-72
2023/07/29 01:19:30;;;;;;;6.37;5.70;;;;;;;17.53;76.43;100257.34;4975979;28;20238;-71
2023/07/29 01:21:58;;;;;;;7.33;6.00;;;;;;;17.50;76.30;100255.44;4975497;28;20223;-72
2023/07/29 01:24:26;;;;;;;7.23;5.10;;;;;;;17.46;76.30;100244.00;4974511;28;20211;-71
2023/07/29 01:26:53;;;;;;;6.80;5.80;;;;;;;17.44;76.26;100246.28;4975926;28;20219;-71
2023/07/29 01:29:19;;;;;;;9.57;6.27;;;;;;;17.41;76.44;100239.81;4973246;28;20236;-71
2023/07/29 01:31:49;;;;;;;7.17;5.80;;;;;;;17.39;76.46;100241.31;4992093;28;20211;-72
2023/07/29 01:34:24;;;;;;;8.27;6.37;;;;;;;17.37;76.60;100241.66;4990701;28;20231;-72
2023/07/29 01:36:53;;;;;;;7.80;5.20;;;;;;;17.36;76.69;100242.03;4988724;28;20215;-72
2023/07/29 01:39:22;;;;;;;6.80;6.07;;;;;;;17.33;76.56;100242.81;4976586;28;20234;-72
2023/07/29 01:41:51;;;;;;;6.80;5.87;;;;;;;17.30;76.75;100232.88;4975273;28;20246;-72
2023/07/29 01:44:19;;;;;;;9.90;6.03;;;;;;;17.27;76.96;100239.72;4972763;28;20449;-72
2023/07/29 01:46:45;;;;;;;7.43;6.33;;;;;;;17.24;76.63;100235.13;4987621;28;20208;-72
2023/07/29 01:49:12;;;;;;;7.33;6.03;;;;;;;17.22;76.70;100244.66;4975919;28;20224;-72
2023/07/29 01:51:38;;;;;;;7.30;5.83;;;;;;;17.19;76.98;100237.44;4975115;28;20207;-73
2023/07/29 01:54:06;;;;;;;7.20;6.13;;;;;;;17.14;76.72;100232.44;4976328;28;20231;-72
2023/07/29 01:56:32;;;;;;;8.33;5.77;;;;;;;17.11;76.78;100244.63;4975027;28;20354;-71
2023/07/29 01:59:00;;;;;;;6.07;5.20;;;;;;;17.08;76.97;100237.38;4990288;28;20239;-72
2023/07/29 02:01:28;;;;;;;10.13;6.50;;;;;;;17.06;76.91;100242.34;4988799;28;20208;-72
2023/07/29 02:03:55;;;;;;;6.10;5.50;;;;;;;17.04;76.93;100243.84;4976147;28;20214;-72
2023/07/29 02:06:21;;;;;;;7.13;5.77;;;;;;;17.01;76.89;100248.03;4974702;28;20219;-72
2023/07/29 02:08:48;;;;;;;6.70;5.73;;;;;;;16.99;76.92;100252.22;4975629;28;21061;-71
2023/07/29 02:11:14;;;;;;;6.73;5.90;;;;;;;16.96;77.05;100259.06;4973880;28;20215;-72
2023/07/29 02:13:41;;;;;;;6.03;5.43;;;;;;;16.93;76.97;100251.06;4973682;28;20215;-72
2023/07/29 02:16:08;;;;;;;7.77;5.47;;;;;;;16.92;77.08;100249.53;4975137;28;20898;-72
2023/07/29 02:18:35;;;;;;;6.37;5.77;;;;;;;16.89;77.17;100247.59;4973440;28;21624;-72
2023/07/29 02:21:02;;;;;;;7.33;6.00;;;;;;;16.87;77.29;100242.63;4992469;28;20212;-72
2023/07/29 02:23:29;;;;;;;6.93;5.83;;;;;;;16.86;77.19;100256.38;4972992;28;20212;-72
2023/07/29 02:25:55;;;;;;;6.03;5.43;;;;;;;16.83;77.17;100254.44;4974523;28;20332;-72
2023/07/29 02:28:22;;;;;;;7.63;5.97;;;;;;;16.80;77.23;100253.28;4990800;28;20236;-71
2023/07/29 02:31:14;;;;;;;8.87;5.60;;;;;;;16.78;77.23;100252.13;4973032;28;20207;-71
2023/07/29 02:33:41;;;;;;;8.00;6.27;;;;;;;16.75;77.29;100252.88;4976079;28;21307;-72
2023/07/29 02:36:07;;;;;;;6.87;5.13;;;;;;;16.72;77.32;100254.38;4977690;28;20222;-72
2023/07/29 02:38:34;;;;;;;5.40;4.87;;;;;;;16.70;77.43;100263.88;4973592;28;20239;-72
2023/07/29 02:41:00;;;;;;;7.83;5.97;;;;;;;16.68;77.50;100261.63;4991110;28;20338;-72
2023/07/29 02:43:27;;;;;;;6.23;5.13;;;;;;;16.67;77.51;100248.66;4972286;28;20218;-72
2023/07/29 02:45:53;;;;;;;8.83;6.13;;;;;;;16.65;77.67;100259.69;4974802;28;20963;-72
2023/07/29 02:48:21;;;;;;;7.07;6.10;;;;;;;16.63;77.93;100267.31;4972955;28;20234;-72
2023/07/29 02:50:47;;;;;;;7.23;6.07;;;;;;;16.61;78.16;100271.47;4974690;28;21116;-72
2023/07/29 02:53:14;;;;;;;5.63;5.03;;;;;;;16.58;77.70;100275.66;4973573;28;20214;-71
2023/07/29 02:55:41;;;;;;;8.23;6.00;;;;;;;16.56;77.89;100271.81;4989267;28;20333;-74
2023/07/29 02:58:07;;;;;;;7.83;5.80;;;;;;;16.55;77.88;100270.31;4975727;28;20869;-71
2023/07/29 03:00:35;;;;;;;7.07;5.30;;;;;;;16.55;77.98;100281.72;4973771;28;20335;-71
2023/07/29 03:03:02;;;;;;;6.47;5.57;;;;;;;16.54;77.99;100274.84;4975294;28;20204;-72
2023/07/29 03:05:30;;;;;;;6.57;5.87;;;;;;;16.54;77.66;100282.84;4973648;28;20815;-72
2023/07/29 03:07:58;;;;;;;7.53;6.27;;;;;;;16.54;78.19;100280.19;4989823;28;20263;-72
2023/07/29 03:10:25;;;;;;;9.00;6.00;;;;;;;16.56;78.45;100282.50;4975998;28;20307;-74
2023/07/29 03:12:51;;;;;;;7.30;6.23;;;;;;;16.56;78.53;100280.56;4973412;28;20270;-73
2023/07/29 03:15:18;;;;;;;7.60;6.17;;;;;;;16.58;78.47;100288.97;4973024;28;20227;-73
2023/07/29 03:17:44;;;;;;;7.50;6.70;;;;;;;16.61;78.57;100284.81;4976573;28;20235;-73
2023/07/29 03:20:11;;;;;;;8.83;6.30;;;;;;;16.62;78.98;100284.41;4974352;28;20701;-73
2023/07/29 03:22:38;;;;;;;9.43;6.77;;;;;;;16.64;78.61;100282.16;4970931;28;20211;-72
2023/07/29 03:25:06;;;;;;;7.37;5.50;;;;;;;16.66;78.44;100285.19;4973604;28;20285;-73
2023/07/29 03:27:33;;;;;;;7.07;5.60;;;;;;;16.68;78.66;100282.16;4973144;28;21004;-73
2023/07/29 03:29:59;;;;;;;8.43;6.77;;;;;;;16.69;78.58;100281.81;4976453;28;20222;-73
2023/07/29 03:32:26;;;;;;;7.67;6.17;;;;;;;16.71;78.25;100289.44;4974381;28;21354;-73
2023/07/29 03:34:52;;;;;;;7.03;6.13;;;;;;;16.73;78.54;100285.25;4975515;28;20865;-73
2023/07/29 03:37:18;;;;;;;8.33;6.13;;;;;;;16.75;78.51;100292.88;4969770;28;20227;-73
2023/07/29 03:39:46;;;;;;;8.50;6.27;;;;;;;16.77;78.29;100290.59;4970597;28;20989;-73
2023/07/29 03:42:13;;;;;;;7.00;5.87;;;;;;;16.78;78.35;100287.56;4974159;28;20222;-73
2023/07/29 03:44:39;;;;;;;6.50;5.33;;;;;;;16.81;78.56;100296.72;4973290;28;20205;-73
2023/07/29 03:47:06;;;;;;;8.27;6.57;;;;;;;16.82;78.44;100288.34;4974564;28;20249;-71
2023/07/29 03:49:33;;;;;;;9.80;6.67;;;;;;;16.85;78.29;100295.59;4969357;28;20254;-72
2023/07/29 03:51:59;;;;;;;7.20;5.97;;;;;;;16.88;78.60;100294.84;4974933;28;20208;-71
2023/07/29 03:54:26;;;;;;;8.47;6.73;;;;;;;16.91;78.50;100294.09;4989497;28;20220;-71
2023/07/29 03:56:54;;;;;;;7.40;5.87;;;;;;;16.95;78.66;100288.78;4989503;28;20679;-71
2023/07/29 03:59:22;;;;;;;7.20;6.00;;;;;;;16.98;78.59;100288.03;4978694;28;20850;-71
2023/07/29 04:01:49;;;;;;;8.03;6.03;;;;;;;17.02;78.40;100283.50;4976406;28;20200;-70
2023/07/29 04:04:15;;;;;;;8.50;6.27;;;;;;;17.08;78.56;100287.31;4975342;28;20757;-71
2023/07/29 04:06:42;;;;;;;8.13;6.97;;;;;;;17.12;78.66;100285.44;4976399;28;20321;-70
2023/07/29 04:09:09;;;;;;;11.07;6.43;;;;;;;17.21;78.73;100289.28;4979389;28;20233;-71
2023/07/29 04:11:35;;;;;;;8.40;6.47;;;;;;;17.29;78.96;100288.13;4974919;28;20239;-71
2023/07/29 04:14:03;;;;;;;6.80;5.97;;;;;;;17.37;78.80;100284.38;4976549;28;20216;-71
2023/07/29 04:16:29;;;;;;;8.47;6.57;;;;;;;17.47;79.01;100282.88;4977485;28;20208;-71
2023/07/29 04:18:55;;;;;;;7.70;6.70;;;;;;;17.57;79.18;100285.59;4977599;28;20370;-71
2023/07/29 04:21:22;;;;;;;6.93;6.23;;;;;;;17.67;79.56;100284.84;4979862;28;20208;-71
2023/07/29 04:23:48;;;;;;;8.30;6.53;;;;;;;17.79;79.46;100289.81;4977618;28;20457;-71
2023/07/29 04:26:15;;;;;;;7.17;6.40;;;;;;;17.90;80.25;100287.91;4976746;28;20204;-71
2023/07/29 04:28:41;;;;;;;7.10;5.80;;;;;;;18.02;79.98;100278.75;4979153;28;20223;-71
2023/07/29 04:31:09;;;;;;;5.77;5.17;;;;;;;18.12;79.63;100270.00;4978913;28;20610;-71
2023/07/29 04:33:35;;;;;;;6.13;5.53;;;;;;;18.23;80.11;100268.84;4994711;28;20207;-71
2023/07/29 04:36:02;;;;;;;6.73;5.30;;;;;;;18.33;80.13;100270.78;4995953;28;20709;-71
2023/07/29 04:38:33;;;;;;;4.87;4.43;;;;;;;18.44;80.01;100282.22;4979210;28;20242;-71
2023/07/29 04:41:01;;;;;;;4.83;4.43;;;;;;;18.52;79.62;100286.38;4978555;28;20212;-71
2023/07/29 04:43:28;;;;;;;4.80;4.30;;;;;;;18.61;79.98;100277.94;4975887;28;20808;-71
2023/07/29 04:45:54;;;;;;;5.30;4.37;;;;;;;18.68;79.91;100284.03;4976279;28;20199;-71
2023/07/29 04:48:22;;;;;;;4.90;4.10;;;;;;;18.75;79.23;100296.66;4977659;28;20250;-71
2023/07/29 04:50:48;;;;;;;4.03;3.63;;;;;;;18.82;79.85;100285.91;4992911;28;20216;-71
2023/07/29 04:53:14;;;;;;;3.93;3.63;;;;;;;18.87;79.62;100282.84;4993502;28;20219;-71
2023/07/29 04:55:42;;;;;;;3.77;3.40;;;;;;;18.91;79.49;100284.38;4976848;28;20619;-70
2023/07/29 04:58:08;;;;;;;3.80;3.40;;;;;;;18.96;79.91;100275.16;4992038;28;20859;-71
2023/07/29 05:00:36;;;;;;;3.50;3.20;;;;;;;19.01;79.32;100278.22;4992984;28;20204;-71
2023/07/29 05:03:03;;;;;;;7.80;3.53;;;;;;;19.05;79.59;100278.94;4994234;28;20223;-71
2023/07/29 05:05:31;;;;;;;4.17;3.03;;;;;;;19.11;79.57;100268.63;4976154;28;20354;-71
2023/07/29 05:07:57;;;;;;;4.33;3.80;;;;;;;19.15;79.40;100275.47;4975028;28;20230;-71
2023/07/29 05:10:24;;;;;;;4.00;3.23;;;;;;;19.20;79.20;100266.28;4992403;28;20215;-71
2023/07/29 05:12:50;;;;;;;3.40;3.10;;;;;;;19.26;79.31;100276.22;4974870;28;20591;-71
2023/07/29 05:15:18;;;;;;;3.87;3.57;;;;;;;19.32;78.94;100276.56;4979018;28;20600;-71
2023/07/29 05:17:45;;;;;;;3.37;3.07;;;;;;;19.37;79.07;100274.25;4975031;28;21057;-71
2023/07/29 05:20:12;;;;;;;3.93;3.13;;;;;;;19.42;79.17;100271.16;4988981;28;20216;-71
2023/07/29 05:22:40;;;;;;;3.40;2.73;;;;;;;19.49;79.26;100278.38;4973658;28;20991;-71
2023/07/29 05:25:07;;;;;;;3.50;3.20;;;;;;;19.55;79.21;100279.50;4993750;28;20700;-71
2023/07/29 05:27:34;;;;;;;2.90;2.70;;;;;;;19.61;79.28;100280.63;4993870;28;21641;-71
2023/07/29 05:30:00;;;;;;;3.03;2.73;;;;;;;19.67;79.27;100282.47;4977200;28;20211;-71
2023/07/29 05:32:26;;;;;;;3.10;2.80;;;;;;;19.72;79.25;100284.72;4976884;28;20207;-71
2023/07/29 05:34:53;;;;;;;2.83;2.57;;;;;;;19.76;78.86;100284.72;4975390;28;20344;-70
2023/07/29 05:37:20;;;;;;;4.60;2.50;;;;;;;19.79;78.57;100297.31;4974130;28;20223;-71
2023/07/29 05:39:48;;;;;;;2.60;2.40;;;;;;;19.78;78.46;100283.19;4974032;28;20210;-71
2023/07/29 05:42:14;;;;;;;2.73;2.53;;;;;;;19.80;78.07;100282.75;4975599;28;20481;-71
2023/07/29 05:44:41;;;;;;;3.90;3.60;;;;;;;19.84;78.29;100275.47;4974265;28;20215;-71
2023/07/29 05:47:07;;;;;;;3.20;2.90;;;;;;;19.89;78.30;100280.41;4973967;28;20883;-71
2023/07/29 05:49:34;;;;;;;3.40;3.10;;;;;;;19.95;78.63;100287.63;4973355;28;20211;-71
2023/07/29 05:52:00;;;;;;;2.80;2.60;;;;;;;20.01;78.20;100277.25;4991929;28;20251;-71
2023/07/29 05:54:27;;;;;;;3.87;2.53;;;;;;;20.06;78.08;100292.91;4994665;28;20211;-71
2023/07/29 05:56:54;;;;;;;2.40;2.20;;;;;;;20.12;78.07;100288.69;4973896;28;20239;-71
2023/07/29 05:59:21;;;;;;;3.43;2.30;;;;;;;20.19;77.92;100285.94;4975855;28;20223;-71
2023/07/29 06:01:50;;;;;;;3.63;2.30;;;;;;;20.28;78.04;100286.25;4974393;28;20341;-71
2023/07/29 06:04:16;;;;;;;3.73;2.07;;;;;;;20.37;77.72;100289.97;4991849;28;20212;-71
2023/07/29 06:06:43;;;;;;;2.30;2.10;;;;;;;20.45;77.43;100277.25;4975712;28;20215;-71
2023/07/29 06:09:09;;;;;;;2.23;2.03;;;;;;;20.54;77.38;100278.31;4992101;28;20228;-71
2023/07/29 06:11:35;;;;;;;2.20;2.00;;;;;;;20.63;76.91;100275.16;4975100;28;20228;-71
2023/07/29 06:14:03;;;;;;;3.43;2.03;;;;;;;20.74;76.87;100281.19;4974075;28;20682;-71
2023/07/29 06:16:30;;;;;;;2.73;1.97;;;;;;;20.84;76.89;100273.00;4973972;28;20231;-71
2023/07/29 06:18:56;;;;;;;3.00;1.93;;;;;;;20.94;76.03;100266.78;4976166;28;20713;-71
2023/07/29 06:21:22;;;;;;;1.57;1.47;;;;;;;21.04;75.89;100267.81;4991442;28;20553;-71
2023/07/29 06:23:50;;;;;;;2.53;1.77;;;;;;;21.14;75.71;100259.63;4975508;28;20342;-71
2023/07/29 06:26:16;;;;;;;1.67;1.57;;;;;;;21.24;75.63;100260.63;4976952;28;20203;-71
2023/07/29 06:28:42;;;;;;;1.93;1.80;;;;;;;21.35;75.38;100258.56;4975802;28;20231;-71
2023/07/29 06:31:10;;;;;;;1.70;1.60;;;;;;;21.48;74.90;100262.22;4976364;28;20211;-71
2023/07/29 06:33:37;;;;;;;1.67;1.57;;;;;;;21.58;74.47;100251.31;4978574;28;20208;-71
2023/07/29 06:36:03;;;;;;;1.53;1.43;;;;;;;21.69;74.73;100249.25;4974483;28;20882;-71
2023/07/29 06:38:30;;;;;;;2.37;1.57;;;;;;;21.78;73.48;100244.13;4975087;28;21458;-71
2023/07/29 06:40:56;;;;;;;1.60;1.50;;;;;;;21.90;73.38;100240.09;4974767;28;20235;-71
2023/07/29 06:43:23;;;;;;;1.60;1.50;;;;;;;22.02;73.12;100239.50;4975857;28;20207;-71
2023/07/29 06:45:49;;;;;;;1.60;1.30;;;;;;;22.13;73.15;100237.38;4977140;28;20961;-71
2023/07/29 06:48:18;;;;;;;1.53;1.40;;;;;;;22.23;71.76;100229.16;4974242;28;21575;-71
2023/07/29 06:50:45;;;;;;;1.80;1.47;;;;;;;22.33;72.26;100233.56;4988923;28;20226;-71
2023/07/29 06:53:11;;;;;;;1.87;1.27;;;;;;;22.43;72.58;100229.94;4974602;28;20416;-71
2023/07/29 06:55:38;;;;;;;1.73;1.63;;;;;;;22.51;71.34;100228.63;4976684;28;20761;-71
2023/07/29 06:58:04;;;;;;;1.87;1.40;;;;;;;22.62;69.96;100228.44;4974593;28;22272;-71
2023/07/29 07:00:30;;;;;;;1.60;1.50;;;;;;;22.71;71.03;100236.72;4976284;28;21475;-71
2023/07/29 07:02:57;;;;;;;1.40;1.30;;;;;;;22.81;70.59;100239.19;4973503;28;20216;-71
2023/07/29 07:05:24;;;;;;;1.50;1.40;;;;;;;22.91;68.39;100235.53;4974376;28;20230;-71
2023/07/29 07:07:51;;;;;;;1.50;1.40;;;;;;;23.02;68.85;100232.63;4974987;28;20234;-71
2023/07/29 07:10:17;;;;;;;2.13;1.27;;;;;;;23.13;68.52;100236.59;4975434;28;20211;-71
2023/07/29 07:12:43;;;;;;;3.25;1.20;;;;;;;23.23;68.10;100238.31;4974871;28;20764;-71
2023/07/29 07:15:10;;;;;;;1.30;1.20;;;;;;;23.34;68.54;100238.09;4972481;28;20219;-71
2023/07/29 07:17:36;;;;;;;1.30;1.20;;;;;;;23.44;67.37;100245.94;4973602;28;20621;-71
2023/07/29 07:20:04;;;;;;;1.48;1.20;;;;;;;23.57;67.34;100248.72;4975193;28;20854;-71
2023/07/29 07:22:31;;;;;;;1.67;1.30;;;;;;;23.70;68.04;100249.59;4973156;28;20212;-71
2023/07/29 07:24:58;;;;;;;1.60;1.30;;;;;;;23.81;66.30;100258.19;4991314;28;20222;-71
2023/07/29 07:27:24;;;;;;;1.02;1.00;;;;;;;23.92;66.67;100250.63;4974091;28;20228;-71
2023/07/29 07:29:51;;;;;;;1.30;1.20;;;;;;;24.01;66.61;100260.81;4973331;28;20652;-71
2023/07/29 07:32:17;;;;;;;1.20;1.10;;;;;;;24.10;65.38;100256.31;4976313;28;20230;-71
2023/07/29 07:34:43;;;;;;;1.88;1.30;;;;;;;24.14;62.87;100258.94;4978579;28;20721;-71
2023/07/29 07:37:10;;;;;;;1.27;1.17;;;;;;;24.22;62.81;100257.56;4973512;28;20250;-70
2023/07/29 07:39:37;;;;;;;1.35;1.10;;;;;;;24.32;63.13;100251.13;4978758;28;20781;-71
2023/07/29 07:42:04;;;;;;;1.35;1.08;;;;;;;24.42;62.68;100248.19;4972633;28;20215;-71
2023/07/29 07:44:30;;;;;;;1.20;1.10;;;;;;;24.50;62.12;100246.78;4976682;28;20212;-71
2023/07/29 07:46:57;;;;;;;1.25;1.13;;;;;;;24.59;62.14;100249.66;4974929;28;20208;-71
2023/07/29 07:49:23;;;;;;;1.08;0.98;;;;;;;24.64;62.40;100242.97;4977650;28;21389;-70
2023/07/29 07:51:50;;;;;;;0.90;0.90;;;;;;;24.72;64.26;100247.00;4978639;28;20215;-71
2023/07/29 07:54:17;;;;;;;0.90;0.90;;;;;;;24.76;61.11;100243.00;4976668;28;20218;-71
2023/07/29 07:56:44;;;;;;;1.20;1.08;;;;;;;24.83;60.75;100248.22;4976392;28;20223;-71
2023/07/29 07:59:11;;;;;;;1.05;1.00;;;;;;;24.90;60.04;100239.91;4977104;28;20589;-71
2023/07/29 08:01:38;;;;;;;1.10;1.00;;;;;;;24.93;60.30;100238.28;4973033;28;20204;-71
2023/07/29 08:04:05;;;;;;;0.90;0.90;;;;;;;24.95;60.12;100238.59;4979250;28;20600;-71
2023/07/29 08:06:31;;;;;;;0.90;0.90;;;;;;;24.96;60.79;100234.75;4975392;28;20219;-71
2023/07/29 08:08:58;;;;;;;1.20;1.05;;;;;;;25.01;59.85;100234.94;4975425;28;20242;-71
2023/07/29 08:11:24;;;;;;;1.80;1.17;;;;;;;25.11;59.84;100225.78;4975183;28;20211;-71
2023/07/29 08:13:52;;;;;;;0.90;0.90;;;;;;;25.20;61.16;100228.59;4976732;28;20263;-71
2023/07/29 08:16:19;;;;;;;1.20;1.10;;;;;;;25.26;59.68;100223.41;4976210;28;20223;-71
2023/07/29 08:18:45;;;;;;;1.15;0.95;;;;;;;25.29;59.17;100225.28;4980258;28;20223;-71
2023/07/29 08:21:11;;;;;;;2.80;0.90;;;;;;;25.32;59.62;100222.44;4975768;28;20208;-71
2023/07/29 08:23:38;;;;;;;0.82;0.82;;;;;;;25.32;59.52;100211.63;4977110;28;20208;-71
2023/07/29 08:26:06;;;;;;;1.35;0.80;;;;;;;25.30;58.24;100203.22;4976536;28;20226;-71
2023/07/29 08:28:34;;;;;;;2.65;1.10;;;;;;;25.33;57.75;100207.00;4977742;28;20908;-71
2023/07/29 08:31:02;;;;;;;1.10;1.00;;;;;;;25.33;58.08;100196.94;4978634;28;20235;-71
2023/07/29 08:33:29;;;;;;;2.85;1.05;;;;;;;25.38;59.42;100199.09;4976367;28;20212;-71
2023/07/29 08:35:55;;;;;;;1.13;1.00;;;;;;;25.42;57.20;100198.97;4976541;28;20227;-72
2023/07/29 08:38:22;;;;;;;1.20;1.10;;;;;;;25.47;57.54;100195.72;4976749;28;20242;-71
2023/07/29 08:40:53;;;;;;;1.00;1.00;;;;;;;25.56;57.81;100191.19;4977474;28;20686;-71
2023/07/29 08:43:20;;;;;;;0.93;0.93;;;;;;;25.60;60.52;100197.25;4974719;28;20211;-71
2023/07/29 08:45:47;;;;;;;1.20;1.10;;;;;;;25.62;56.86;100194.06;4978334;28;20895;-71
2023/07/29 08:48:20;;;;;;;0.90;0.90;;;;;;;25.65;58.15;100204.78;4977816;28;20227;-71
2023/07/29 08:50:47;;;;;;;1.10;1.00;;;;;;;25.73;57.40;100197.97;4976318;28;20212;-71
2023/07/29 08:53:14;;;;;;;1.48;1.10;;;;;;;25.89;57.12;100191.66;4976711;28;21255;-70
2023/07/29 08:55:40;;;;;;;1.17;0.93;;;;;;;26.01;57.88;100197.03;4976919;28;21419;-71
2023/07/29 08:58:07;;;;;;;2.25;1.17;;;;;;;26.04;57.06;100189.97;4976811;28;20865;-71
2023/07/29 09:00:33;;;;;;;0.88;0.88;;;;;;;26.13;54.65;100188.13;4975142;28;20218;-71
2023/07/29 09:03:06;;;;;;;0.98;0.98;;;;;;;26.26;53.05;100177.25;4974628;28;20208;-71
2023/07/29 09:05:34;;;;;;;1.20;1.10;;;;;;;26.35;58.29;100190.81;4976555;28;20208;-71
2023/07/29 09:08:00;;;;;;;1.65;1.00;;;;;;;26.44;53.22;100185.47;4974854;28;20219;-71
2023/07/29 09:10:26;;;;;;;1.52;1.08;;;;;;;26.47;55.44;100192.72;4976281;28;20208;-71
2023/07/29 09:12:53;;;;;;;1.00;0.95;;;;;;;26.50;53.86;100183.69;4975903;28;21753;-71
2023/07/29 09:15:29;;;;;;;0.80;0.80;;;;;;;26.49;52.22;100182.19;4977040;28;21342;-71
2023/07/29 09:17:57;;;;;;;0.90;0.90;;;;;;;26.50;52.59;100195.31;4975280;28;20444;-70
2023/07/29 09:20:27;;;;;;;2.10;0.88;;;;;;;26.57;52.63;100194.31;4975118;28;20694;-71
2023/07/29 09:22:58;;;;;;;0.90;0.90;;;;;;;26.63;53.22;100187.13;4975318;28;20995;-71
2023/07/29 09:25:25;;;;;;;1.25;0.90;;;;;;;26.67;54.62;100193.19;4974718;28;20214;-70
2023/07/29 09:27:52;;;;;;;1.00;1.00;;;;;;;26.69;57.04;100188.06;4978081;28;20234;-70
2023/07/29 09:30:19;;;;;;;1.00;0.93;;;;;;;26.76;53.42;100188.56;4974361;28;20212;-71
2023/07/29 09:32:45;;;;;;;0.90;0.90;;;;;;;26.81;52.97;100192.63;4976125;28;20204;-71
2023/07/29 09:35:12;;;;;;;1.10;1.00;;;;;;;26.90;52.89;100184.56;4973327;28;20204;-71
2023/07/29 09:37:39;;;;;;;5.53;3.05;;;;;;;26.99;55.32;100190.75;4970464;28;20231;-71
2023/07/29 09:40:14;;;;;;;1.00;0.90;;;;;;;27.11;51.88;100179.09;4973378;28;20953;-70
2023/07/29 09:42:40;;;;;;;0.90;0.90;;;;;;;27.26;50.88;100182.78;4968757;28;20211;-71
2023/07/29 09:45:07;;;;;;;0.80;0.80;;;;;;;27.40;51.85;100182.19;4973442;28;20210;-71
2023/07/29 09:47:33;;;;;;;1.33;1.02;;;;;;;27.49;51.66;100173.31;4973409;28;20220;-71
2023/07/29 09:50:00;;;;;;;0.85;0.85;;;;;;;27.53;52.94;100179.38;4974244;28;21236;-71
2023/07/29 09:52:27;;;;;;;1.10;1.00;;;;;;;27.53;49.66;100173.94;4973156;28;20224;-71
2023/07/29 09:54:53;;;;;;;0.80;0.80;;;;;;;27.51;53.22;100168.22;4977231;28;20587;-70
2023/07/29 09:57:21;;;;;;;0.88;0.88;;;;;;;27.44;50.19;100169.25;4974795;28;20243;-70
2023/07/29 09:59:54;;;;;;;1.30;1.20;;;;;;;27.36;52.62;100159.16;4975476;28;20216;-70
2023/07/29 10:02:21;;;;;;;1.20;1.10;;;;;;;27.44;50.93;100163.81;4976553;28;20212;-71
2023/07/29 10:04:48;;;;;;;1.50;1.20;;;;;;;27.40;50.19;100157.03;4974090;28;20866;-71
2023/07/29 10:07:16;;;;;;;2.50;1.35;;;;;;;27.46;49.90;100166.09;4976449;28;20204;-71
2023/07/29 10:09:44;;;;;;;1.10;1.10;;;;;;;27.45;53.24;100156.47;4975601;28;20216;-70
2023/07/29 10:12:12;;;;;;;1.08;0.98;;;;;;;27.47;50.25;100157.53;4975022;28;21057;-70
2023/07/29 10:14:40;;;;;;;1.55;1.00;;;;;;;27.55;50.36;100155.28;4975158;28;20231;-71
2023/07/29 10:17:06;;;;;;;1.00;1.00;;;;;;;27.59;50.32;100155.84;4974946;28;20231;-71
2023/07/29 10:19:33;;;;;;;2.08;1.10;;;;;;;27.59;52.46;100155.84;4991668;28;20655;-71
2023/07/29 10:22:01;;;;;;;2.15;1.10;;;;;;;27.63;50.73;100159.19;4977125;28;20614;-71
2023/07/29 10:24:31;;;;;;;0.90;0.90;;;;;;;27.61;48.64;100156.91;4973411;28;20377;-71
2023/07/29 10:26:59;;;;;;;1.70;0.90;;;;;;;27.61;52.67;100153.47;4975118;28;20914;-71
2023/07/29 10:29:31;;;;;;;1.40;1.00;;;;;;;27.63;48.93;100151.03;4975679;28;20219;-70
2023/07/29 10:32:04;;;;;;;0.80;0.80;;;;;;;27.69;49.14;100152.72;4975749;28;20238;-71
2023/07/29 10:34:31;;;;;;;0.95;0.95;;;;;;;27.75;51.74;100150.13;4977189;28;20678;-70
2023/07/29 10:36:59;;;;;;;1.10;0.90;;;;;;;27.81;50.32;100154.56;4974342;28;20220;-71
2023/07/29 10:39:25;;;;;;;1.10;1.00;;;;;;;27.80;49.26;100144.91;4975061;28;20234;-71
2023/07/29 10:42:00;;;;;;;1.00;1.00;;;;;;;27.83;47.73;100137.81;4975440;28;20313;-71
2023/07/29 10:44:52;;;;;;;1.55;0.93;;;;;;;27.92;48.46;100141.28;4975261;28;20214;-71
2023/07/29 10:47:22;;;;;;;1.02;0.90;;;;;;;27.96;50.81;100133.00;4974454;28;21897;-71
2023/07/29 10:49:51;;;;;;;1.20;1.10;;;;;;;28.00;50.88;100128.16;4975844;28;20435;-71
2023/07/29 10:52:30;;;;;;;1.35;0.85;;;;;;;27.93;47.43;100126.53;4975738;28;20286;-71
2023/07/29 10:54:58;;;;;;;1.00;1.00;;;;;;;27.99;47.54;100129.38;4975988;28;20843;-71
2023/07/29 10:57:32;;;;;;;1.23;0.98;;;;;;;27.99;51.25;100132.09;4972681;28;21479;-71
2023/07/29 10:59:59;;;;;;;0.80;0.80;;;;;;;28.01;48.30;100129.69;4974276;28;22080;-71
2023/07/29 11:02:32;;;;;;;0.93;0.85;;;;;;;28.03;47.22;100132.69;4974793;28;21608;-71
2023/07/29 11:05:00;;;;;;;0.80;0.80;;;;;;;28.07;45.52;100125.16;4975316;28;20208;-71
2023/07/29 11:07:27;;;;;;;1.05;0.98;;;;;;;28.16;45.61;100116.97;4980489;28;20236;-71
2023/07/29 11:10:02;;;;;;;0.80;0.80;;;;;;;28.11;47.10;100112.16;4979000;28;20208;-71
2023/07/29 11:12:43;;;;;;;0.90;0.90;;;;;;;28.10;45.14;100108.69;4976705;28;20948;-71
2023/07/29 11:15:24;;;;;;;0.70;0.70;;;;;;;28.02;45.24;100104.78;4977679;28;20210;-71
2023/07/29 11:17:54;;;;;;;0.80;0.80;;;;;;;28.02;46.06;100110.22;4978594;28;20238;-71
2023/07/29 11:20:22;;;;;;;2.80;0.80;;;;;;;27.93;45.26;100107.53;4979449;28;20203;-71
2023/07/29 11:22:49;;;;;;;0.95;0.80;;;;;;;27.92;48.05;100106.00;4976464;28;20405;-70
2023/07/29 11:25:16;;;;;;;1.00;0.90;;;;;;;27.83;46.94;100094.41;4980944;28;20862;-71